Syracuse, Missouri
Current Conditions -  °F | °C
As of 1:53 AM on Saturday 29 Nov 2014 (Local Time) from KDMO Reporting Station
Clear Clear  
Wind Chill: 54°   Ceiling: Unl
Heat Index: 54°   Visibility: 10mi
Dew Point: 44°   Wind: 18mph
Humidity: 69%   Direction: 210°SSW
Pressure: 29.73"   Gusts: 25mph
Location:  38.67°N, 92.87°W
Report Text: KDMO 290753Z AUTO 21016G22KT 10SM CLR 12/07 A2973 RMK AO2 SLP065 T01220067
Loading
Personal Weather Stations






























Interactive Weather Map New forecast layout! Learn more

10-Day Weather Forecast

Advertisements
Track Severe Weather on mobile